PWSweather.com
Personal Weather Stations
Station Observations
BANEKERE1
AntwerpenBE

AntwerpenBE

Lat: 51.2809101, Lon: 4.4202713

Elevation: 40

Station Type:

http://www.akker.be

Latest ConditionsUpdated 5:20:05 AM GMT+01:01 Tuesday, Dec 23, 2014
Currently Today's Max Today's Min Today's Average
Temperature 53.4°F11.9°C 53.5°F11.9°C 52.4°F11.3°C 52.8°F11.6°C
Dew Point 47.0°F8.3°C 47.7°F8.7°C 46.6°F8.1°C 47.2°F8.4°C
Winds 6.9 mph WSW11.1 kmh WSW 12.7 mph NW20.4 kmh NW - 8.0 mph 12.9 kmh
Wind Gusts 11.5 mph18.5 kmh 23.0 mph37.0 kmh - -
Humidity 79% 82% 78% 81%
Pressure 30.12 in1020.0 mb 30.13 in1020.3 mb 30.10 in1019.3 mb -
Hour Temp Dew Point Humidity Winds Wind Gusts Pressure Precip Precip Rate Daily Precip Total
05:20 AM 53.4°F11.9°C 47.0°F8.3°C 79% 6.9 mph WSW11.1 kmh WSW 11.5 mph18.5 kmh 30.12 in1020.0 mb 0.00 in0.0 mm 0.00 in/hr0.0 mm/hr 0.00 in0.0 mm
05:10 AM 53.4°F11.9°C 47.0°F8.3°C 79% 8.1 mph N13.0 kmh N 17.3 mph27.8 kmh 30.12 in1020.0 mb 0.00 in0.0 mm 0.00 in/hr0.0 mm/hr 0.00 in0.0 mm
05:00 AM 53.5°F11.9°C 46.8°F8.2°C 78% 4.6 mph NW7.4 kmh NW 9.2 mph14.8 kmh 30.12 in1020.0 mb 0.00 in0.0 mm 0.00 in/hr0.0 mm/hr 0.00 in0.0 mm
04:50 AM 53.3°F11.8°C 46.6°F8.1°C 78% 9.2 mph WSW14.8 kmh WSW 15.0 mph24.1 kmh 30.12 in1020.0 mb 0.00 in0.0 mm 0.00 in/hr0.0 mm/hr 0.00 in0.0 mm
04:40 AM 53.2°F11.8°C 47.2°F8.4°C 80% 10.4 mph WSW16.7 kmh WSW 18.4 mph29.6 kmh 30.12 in1020.0 mb 0.00 in0.0 mm 0.00 in/hr0.0 mm/hr 0.00 in0.0 mm
04:30 AM 53.1°F11.7°C 47.4°F8.6°C 81% 4.6 mph WNW7.4 kmh WNW 6.9 mph11.1 kmh 30.12 in1020.0 mb 0.00 in0.0 mm 0.00 in/hr0.0 mm/hr 0.00 in0.0 mm
04:20 AM 52.9°F11.6°C 47.2°F8.4°C 81% 5.8 mph NW9.3 kmh NW 9.2 mph14.8 kmh 30.12 in1020.0 mb 0.00 in0.0 mm 0.00 in/hr0.0 mm/hr 0.00 in0.0 mm
04:10 AM 52.8°F11.6°C 47.1°F8.4°C 81% 6.9 mph W11.1 kmh W 8.1 mph13.0 kmh 30.12 in1020.0 mb 0.00 in0.0 mm 0.00 in/hr0.0 mm/hr 0.00 in0.0 mm
04:00 AM 52.7°F11.5°C 47.4°F8.6°C 82% 4.6 mph W7.4 kmh W 13.8 mph22.2 kmh 30.13 in1020.3 mb 0.00 in0.0 mm 0.00 in/hr0.0 mm/hr 0.00 in0.0 mm
03:50 AM 52.6°F11.4°C 47.3°F8.5°C 82% 6.9 mph NW11.1 kmh NW 21.9 mph35.2 kmh 30.12 in1020.0 mb 0.00 in0.0 mm 0.00 in/hr0.0 mm/hr 0.00 in0.0 mm
03:40 AM 52.5°F11.4°C 47.1°F8.4°C 82% 11.5 mph NNW18.5 kmh NNW 18.4 mph29.6 kmh 30.13 in1020.3 mb 0.00 in0.0 mm 0.00 in/hr0.0 mm/hr 0.00 in0.0 mm
03:30 AM 52.4°F11.3°C 47.1°F8.4°C 82% 6.9 mph N11.1 kmh N 16.1 mph25.9 kmh 30.13 in1020.3 mb 0.00 in0.0 mm 0.00 in/hr0.0 mm/hr 0.00 in0.0 mm
03:20 AM 52.5°F11.4°C 47.1°F8.4°C 82% 5.8 mph NNW9.3 kmh NNW 10.4 mph16.7 kmh 30.13 in1020.3 mb 0.00 in0.0 mm 0.00 in/hr0.0 mm/hr 0.00 in0.0 mm
03:10 AM 52.6°F11.4°C 47.2°F8.4°C 82% 9.2 mph NW14.8 kmh NW 17.3 mph27.8 kmh 30.13 in1020.3 mb 0.00 in0.0 mm 0.00 in/hr0.0 mm/hr 0.00 in0.0 mm
03:00 AM 52.6°F11.4°C 47.3°F8.5°C 82% 9.2 mph NW14.8 kmh NW 17.3 mph27.8 kmh 30.13 in1020.3 mb 0.00 in0.0 mm 0.00 in/hr0.0 mm/hr 0.00 in0.0 mm
02:50 AM 52.5°F11.4°C 47.2°F8.4°C 82% 6.9 mph W11.1 kmh W 12.7 mph20.4 kmh 30.13 in1020.3 mb 0.00 in0.0 mm 0.00 in/hr0.0 mm/hr 0.00 in0.0 mm
02:40 AM 52.5°F11.4°C 47.1°F8.4°C 82% 6.9 mph WNW11.1 kmh WNW 12.7 mph20.4 kmh 30.12 in1020.0 mb 0.00 in0.0 mm 0.00 in/hr0.0 mm/hr 0.00 in0.0 mm
02:30 AM 52.5°F11.4°C 47.2°F8.4°C 82% 5.8 mph WNW9.3 kmh WNW 10.4 mph16.7 kmh 30.12 in1020.0 mb 0.00 in0.0 mm 0.00 in/hr0.0 mm/hr 0.00 in0.0 mm
02:20 AM 52.4°F11.3°C 47.1°F8.4°C 82% 6.9 mph N11.1 kmh N 12.7 mph20.4 kmh 30.12 in1020.0 mb 0.00 in0.0 mm 0.00 in/hr0.0 mm/hr 0.00 in0.0 mm
02:10 AM 52.4°F11.3°C 47.1°F8.4°C 82% 8.1 mph W13.0 kmh W 20.7 mph33.3 kmh 30.11 in1019.6 mb 0.00 in0.0 mm 0.00 in/hr0.0 mm/hr 0.00 in0.0 mm
02:00 AM 52.5°F11.4°C 46.9°F8.3°C 81% 8.1 mph SW13.0 kmh SW 11.5 mph18.5 kmh 30.11 in1019.6 mb 0.00 in0.0 mm 0.00 in/hr0.0 mm/hr 0.00 in0.0 mm
01:50 AM 52.7°F11.5°C 47.0°F8.3°C 81% 8.1 mph NW13.0 kmh NW 19.6 mph31.5 kmh 30.11 in1019.6 mb 0.00 in0.0 mm 0.00 in/hr0.0 mm/hr 0.00 in0.0 mm
01:40 AM 52.7°F11.5°C 47.0°F8.3°C 81% 12.7 mph NW20.4 kmh NW 20.7 mph33.3 kmh 30.11 in1019.6 mb 0.00 in0.0 mm 0.00 in/hr0.0 mm/hr 0.00 in0.0 mm
01:30 AM 52.8°F11.6°C 47.1°F8.4°C 81% 10.4 mph NNW16.7 kmh NNW 18.4 mph29.6 kmh 30.11 in1019.6 mb 0.00 in0.0 mm 0.00 in/hr0.0 mm/hr 0.00 in0.0 mm
01:20 AM 52.8°F11.6°C 47.2°F8.4°C 81% 9.2 mph WNW14.8 kmh WNW 13.8 mph22.2 kmh 30.11 in1019.6 mb 0.00 in0.0 mm 0.00 in/hr0.0 mm/hr 0.00 in0.0 mm
01:10 AM 53.0°F11.7°C 47.3°F8.5°C 81% 6.9 mph NW11.1 kmh NW 12.7 mph20.4 kmh 30.11 in1019.6 mb 0.00 in0.0 mm 0.00 in/hr0.0 mm/hr 0.00 in0.0 mm
01:00 AM 53.0°F11.7°C 47.3°F8.5°C 81% 9.2 mph NW14.8 kmh NW 13.8 mph22.2 kmh 30.11 in1019.6 mb 0.00 in0.0 mm 0.00 in/hr0.0 mm/hr 0.00 in0.0 mm
12:50 AM 52.9°F11.6°C 47.2°F8.4°C 81% 9.2 mph NW14.8 kmh NW 13.8 mph22.2 kmh 30.11 in1019.6 mb 0.00 in0.0 mm 0.00 in/hr0.0 mm/hr 0.00 in0.0 mm
12:40 AM 52.8°F11.6°C 47.1°F8.4°C 81% 8.1 mph NW13.0 kmh NW 15.0 mph24.1 kmh 30.11 in1019.6 mb 0.00 in0.0 mm 0.00 in/hr0.0 mm/hr 0.00 in0.0 mm
12:30 AM 52.8°F11.6°C 47.5°F8.6°C 82% 6.9 mph N11.1 kmh N 12.7 mph20.4 kmh 30.11 in1019.6 mb 0.00 in0.0 mm 0.00 in/hr0.0 mm/hr 0.00 in0.0 mm
12:20 AM 53.0°F11.7°C 47.7°F8.7°C 82% 8.1 mph NW13.0 kmh NW 12.7 mph20.4 kmh 30.10 in1019.3 mb 0.00 in0.0 mm 0.00 in/hr0.0 mm/hr 0.00 in0.0 mm
12:10 AM 53.1°F11.7°C 47.4°F8.6°C 81% 11.5 mph WSW18.5 kmh WSW 23.0 mph37.0 kmh 30.10 in1019.3 mb 0.00 in0.0 mm 0.00 in/hr0.0 mm/hr 0.00 in0.0 mm
12:00 AM 53.2°F11.8°C 47.5°F8.6°C 81% 10.4 mph WSW16.7 kmh WSW 13.8 mph22.2 kmh 30.11 in1019.6 mb 0.00 in0.0 mm 0.00 in/hr0.0 mm/hr 0.00 in0.0 mm